sensor_id;sensor_type;location;lat;lon;timestamp;P1;durP1;ratioP1;P2;durP2;ratioP2
64684;SDS011;51109;47.414;18.954;2022-12-07T00:01:15;7.70;;;3.75;;
64684;SDS011;51109;47.414;18.954;2022-12-07T00:03:55;7.60;;;3.42;;
64684;SDS011;51109;47.414;18.954;2022-12-07T00:06:31;4.22;;;2.85;;
64684;SDS011;51109;47.414;18.954;2022-12-07T00:08:59;8.57;;;4.03;;
64684;SDS011;51109;47.414;18.954;2022-12-07T00:11:25;4.38;;;3.42;;
64684;SDS011;51109;47.414;18.954;2022-12-07T00:13:53;6.13;;;2.92;;
64684;SDS011;51109;47.414;18.954;2022-12-07T00:16:21;8.13;;;3.60;;
64684;SDS011;51109;47.414;18.954;2022-12-07T00:18:48;5.88;;;3.47;;
64684;SDS011;51109;47.414;18.954;2022-12-07T00:23:45;4.32;;;3.10;;
64684;SDS011;51109;47.414;18.954;2022-12-07T00:26:20;11.25;;;3.53;;
64684;SDS011;51109;47.414;18.954;2022-12-07T00:28:54;7.75;;;3.70;;
64684;SDS011;51109;47.414;18.954;2022-12-07T00:31:23;5.85;;;3.90;;
64684;SDS011;51109;47.414;18.954;2022-12-07T00:33:51;9.88;;;4.60;;
64684;SDS011;51109;47.414;18.954;2022-12-07T00:36:18;5.93;;;3.97;;
64684;SDS011;51109;47.414;18.954;2022-12-07T00:38:46;7.82;;;3.50;;
64684;SDS011;51109;47.414;18.954;2022-12-07T00:41:19;7.32;;;3.97;;
64684;SDS011;51109;47.414;18.954;2022-12-07T00:43:46;8.00;;;3.95;;
64684;SDS011;51109;47.414;18.954;2022-12-07T00:46:14;6.93;;;3.65;;
64684;SDS011;51109;47.414;18.954;2022-12-07T00:48:41;6.43;;;2.83;;
64684;SDS011;51109;47.414;18.954;2022-12-07T00:51:07;6.72;;;3.88;;
64684;SDS011;51109;47.414;18.954;2022-12-07T00:53:36;8.48;;;5.65;;
64684;SDS011;51109;47.414;18.954;2022-12-07T00:56:06;8.63;;;4.05;;
64684;SDS011;51109;47.414;18.954;2022-12-07T00:58:33;12.18;;;3.80;;
64684;SDS011;51109;47.414;18.954;2022-12-07T01:01:00;10.98;;;4.22;;
64684;SDS011;51109;47.414;18.954;2022-12-07T01:03:27;5.80;;;2.97;;
64684;SDS011;51109;47.414;18.954;2022-12-07T01:05:54;9.85;;;3.90;;
64684;SDS011;51109;47.414;18.954;2022-12-07T01:08:21;5.47;;;3.72;;
64684;SDS011;51109;47.414;18.954;2022-12-07T01:10:49;8.52;;;3.13;;
64684;SDS011;51109;47.414;18.954;2022-12-07T01:13:22;8.77;;;4.07;;
64684;SDS011;51109;47.414;18.954;2022-12-07T01:15:48;5.95;;;3.05;;
64684;SDS011;51109;47.414;18.954;2022-12-07T01:18:14;13.32;;;4.07;;
64684;SDS011;51109;47.414;18.954;2022-12-07T01:20:40;14.40;;;4.38;;
64684;SDS011;51109;47.414;18.954;2022-12-07T01:23:06;8.05;;;3.60;;
64684;SDS011;51109;47.414;18.954;2022-12-07T01:25:32;7.93;;;3.83;;
64684;SDS011;51109;47.414;18.954;2022-12-07T01:27:58;9.18;;;4.00;;
64684;SDS011;51109;47.414;18.954;2022-12-07T01:30:23;7.82;;;3.58;;
64684;SDS011;51109;47.414;18.954;2022-12-07T01:32:49;6.53;;;3.72;;
64684;SDS011;51109;47.414;18.954;2022-12-07T01:35:15;15.20;;;4.32;;
64684;SDS011;51109;47.414;18.954;2022-12-07T01:37:41;13.15;;;4.57;;
64684;SDS011;51109;47.414;18.954;2022-12-07T01:40:07;9.07;;;3.72;;
64684;SDS011;51109;47.414;18.954;2022-12-07T01:42:35;12.45;;;3.92;;
64684;SDS011;51109;47.414;18.954;2022-12-07T01:48:05;11.75;;;3.38;;
64684;SDS011;51109;47.414;18.954;2022-12-07T01:50:32;7.85;;;3.80;;
64684;SDS011;51109;47.414;18.954;2022-12-07T01:52:59;8.30;;;3.47;;
64684;SDS011;51109;47.414;18.954;2022-12-07T01:55:29;5.45;;;3.85;;
64684;SDS011;51109;47.414;18.954;2022-12-07T01:57:55;9.95;;;4.20;;
64684;SDS011;51109;47.414;18.954;2022-12-07T02:03:00;13.85;;;4.60;;
64684;SDS011;51109;47.414;18.954;2022-12-07T02:05:27;7.25;;;4.28;;
64684;SDS011;51109;47.414;18.954;2022-12-07T02:07:54;8.45;;;5.40;;
64684;SDS011;51109;47.414;18.954;2022-12-07T02:10:31;10.18;;;6.18;;
64684;SDS011;51109;47.414;18.954;2022-12-07T02:13:13;13.07;;;5.25;;
64684;SDS011;51109;47.414;18.954;2022-12-07T02:21:16;16.63;;;5.13;;
64684;SDS011;51109;47.414;18.954;2022-12-07T02:31:42;13.30;;;6.70;;
64684;SDS011;51109;47.414;18.954;2022-12-07T02:37:20;12.55;;;5.72;;
64684;SDS011;51109;47.414;18.954;2022-12-07T02:40:07;8.73;;;4.88;;
64684;SDS011;51109;47.414;18.954;2022-12-07T02:42:38;11.88;;;5.38;;
64684;SDS011;51109;47.414;18.954;2022-12-07T02:45:08;10.05;;;5.38;;
64684;SDS011;51109;47.414;18.954;2022-12-07T02:47:36;12.02;;;5.15;;
64684;SDS011;51109;47.414;18.954;2022-12-07T02:50:03;11.48;;;6.00;;
64684;SDS011;51109;47.414;18.954;2022-12-07T02:52:30;10.63;;;5.43;;
64684;SDS011;51109;47.414;18.954;2022-12-07T02:54:56;8.02;;;5.55;;
64684;SDS011;51109;47.414;18.954;2022-12-07T03:00:16;7.65;;;5.40;;
64684;SDS011;51109;47.414;18.954;2022-12-07T03:02:55;8.85;;;5.50;;
64684;SDS011;51109;47.414;18.954;2022-12-07T03:05:45;12.45;;;5.32;;
64684;SDS011;51109;47.414;18.954;2022-12-07T03:11:12;9.32;;;5.82;;
64684;SDS011;51109;47.414;18.954;2022-12-07T03:13:49;10.45;;;5.68;;
64684;SDS011;51109;47.414;18.954;2022-12-07T03:16:23;10.48;;;5.32;;
64684;SDS011;51109;47.414;18.954;2022-12-07T03:19:02;12.60;;;5.82;;
64684;SDS011;51109;47.414;18.954;2022-12-07T03:21:47;11.27;;;4.85;;
64684;SDS011;51109;47.414;18.954;2022-12-07T03:24:19;11.30;;;6.07;;
64684;SDS011;51109;47.414;18.954;2022-12-07T03:26:50;11.95;;;5.78;;
64684;SDS011;51109;47.414;18.954;2022-12-07T03:29:25;14.23;;;5.95;;
64684;SDS011;51109;47.414;18.954;2022-12-07T03:32:36;9.30;;;5.10;;
64684;SDS011;51109;47.414;18.954;2022-12-07T03:37:21;14.10;;;6.10;;
64684;SDS011;51109;47.414;18.954;2022-12-07T03:39:58;13.65;;;6.95;;
64684;SDS011;51109;47.414;18.954;2022-12-07T03:42:31;12.05;;;5.88;;
64684;SDS011;51109;47.414;18.954;2022-12-07T03:44:58;13.98;;;7.15;;
64684;SDS011;51109;47.414;18.954;2022-12-07T03:47:38;12.15;;;6.22;;
64684;SDS011;51109;47.414;18.954;2022-12-07T03:50:15;11.45;;;5.47;;
64684;SDS011;51109;47.414;18.954;2022-12-07T03:53:15;12.23;;;6.47;;
64684;SDS011;51109;47.414;18.954;2022-12-07T03:55:45;10.82;;;6.63;;
64684;SDS011;51109;47.414;18.954;2022-12-07T03:58:15;15.98;;;6.70;;
64684;SDS011;51109;47.414;18.954;2022-12-07T04:00:44;12.85;;;5.43;;
64684;SDS011;51109;47.414;18.954;2022-12-07T04:03:13;12.40;;;5.35;;
64684;SDS011;51109;47.414;18.954;2022-12-07T04:05:40;8.73;;;5.30;;
64684;SDS011;51109;47.414;18.954;2022-12-07T04:08:06;10.55;;;5.53;;
64684;SDS011;51109;47.414;18.954;2022-12-07T04:10:32;9.98;;;4.38;;
64684;SDS011;51109;47.414;18.954;2022-12-07T04:12:58;12.40;;;5.40;;
64684;SDS011;51109;47.414;18.954;2022-12-07T04:15:24;8.30;;;4.65;;
64684;SDS011;51109;47.414;18.954;2022-12-07T04:17:50;9.18;;;5.18;;
64684;SDS011;51109;47.414;18.954;2022-12-07T04:20:16;10.20;;;4.88;;
64684;SDS011;51109;47.414;18.954;2022-12-07T04:22:42;9.57;;;5.00;;
64684;SDS011;51109;47.414;18.954;2022-12-07T04:25:08;10.25;;;5.50;;
64684;SDS011;51109;47.414;18.954;2022-12-07T04:27:34;13.50;;;5.55;;
64684;SDS011;51109;47.414;18.954;2022-12-07T04:30:00;9.38;;;5.53;;
64684;SDS011;51109;47.414;18.954;2022-12-07T04:32:26;14.48;;;6.20;;
64684;SDS011;51109;47.414;18.954;2022-12-07T04:34:52;14.52;;;5.68;;
64684;SDS011;51109;47.414;18.954;2022-12-07T04:37:18;13.18;;;6.07;;
64684;SDS011;51109;47.414;18.954;2022-12-07T04:39:44;15.77;;;6.28;;
64684;SDS011;51109;47.414;18.954;2022-12-07T04:42:10;11.38;;;5.63;;
64684;SDS011;51109;47.414;18.954;2022-12-07T04:44:37;11.85;;;5.30;;
64684;SDS011;51109;47.414;18.954;2022-12-07T04:47:04;8.90;;;4.68;;
64684;SDS011;51109;47.414;18.954;2022-12-07T04:49:30;13.02;;;5.72;;
64684;SDS011;51109;47.414;18.954;2022-12-07T04:51:56;12.10;;;5.47;;
64684;SDS011;51109;47.414;18.954;2022-12-07T04:54:22;12.50;;;5.78;;
64684;SDS011;51109;47.414;18.954;2022-12-07T04:56:47;14.07;;;5.93;;
64684;SDS011;51109;47.414;18.954;2022-12-07T04:59:15;10.63;;;5.60;;
64684;SDS011;51109;47.414;18.954;2022-12-07T05:01:41;10.18;;;6.00;;
64684;SDS011;51109;47.414;18.954;2022-12-07T05:04:08;9.82;;;5.50;;
64684;SDS011;51109;47.414;18.954;2022-12-07T05:06:34;12.98;;;5.78;;
64684;SDS011;51109;47.414;18.954;2022-12-07T05:09:00;8.90;;;4.72;;
64684;SDS011;51109;47.414;18.954;2022-12-07T05:11:26;14.35;;;5.07;;
64684;SDS011;51109;47.414;18.954;2022-12-07T05:14:25;10.00;;;5.97;;
64684;SDS011;51109;47.414;18.954;2022-12-07T05:16:50;7.25;;;3.90;;
64684;SDS011;51109;47.414;18.954;2022-12-07T05:19:16;11.32;;;5.22;;
64684;SDS011;51109;47.414;18.954;2022-12-07T05:21:44;11.43;;;4.80;;
64684;SDS011;51109;47.414;18.954;2022-12-07T05:24:10;9.63;;;5.53;;
64684;SDS011;51109;47.414;18.954;2022-12-07T05:26:38;11.43;;;4.97;;
64684;SDS011;51109;47.414;18.954;2022-12-07T05:29:04;10.68;;;5.97;;
64684;SDS011;51109;47.414;18.954;2022-12-07T05:31:30;10.43;;;4.85;;
64684;SDS011;51109;47.414;18.954;2022-12-07T05:33:56;9.95;;;5.38;;
64684;SDS011;51109;47.414;18.954;2022-12-07T05:36:22;12.98;;;5.40;;
64684;SDS011;51109;47.414;18.954;2022-12-07T05:38:49;8.73;;;4.82;;
64684;SDS011;51109;47.414;18.954;2022-12-07T05:41:16;10.25;;;4.65;;
64684;SDS011;51109;47.414;18.954;2022-12-07T05:44:02;13.73;;;6.60;;
64684;SDS011;51109;47.414;18.954;2022-12-07T05:46:28;16.08;;;7.20;;
64684;SDS011;51109;47.414;18.954;2022-12-07T05:48:54;15.68;;;8.30;;
64684;SDS011;51109;47.414;18.954;2022-12-07T05:51:20;16.40;;;8.90;;
64684;SDS011;51109;47.414;18.954;2022-12-07T05:53:46;23.70;;;9.55;;
64684;SDS011;51109;47.414;18.954;2022-12-07T05:56:12;15.38;;;6.82;;
64684;SDS011;51109;47.414;18.954;2022-12-07T05:58:38;19.98;;;6.63;;
64684;SDS011;51109;47.414;18.954;2022-12-07T06:01:23;17.77;;;7.10;;
64684;SDS011;51109;47.414;18.954;2022-12-07T06:03:48;20.10;;;7.35;;
64684;SDS011;51109;47.414;18.954;2022-12-07T06:06:14;19.17;;;8.25;;
64684;SDS011;51109;47.414;18.954;2022-12-07T06:08:40;14.45;;;7.20;;
64684;SDS011;51109;47.414;18.954;2022-12-07T06:11:06;21.27;;;9.75;;
64684;SDS011;51109;47.414;18.954;2022-12-07T06:13:50;23.73;;;9.02;;
64684;SDS011;51109;47.414;18.954;2022-12-07T06:16:16;11.98;;;6.25;;
64684;SDS011;51109;47.414;18.954;2022-12-07T06:18:43;13.48;;;7.72;;
64684;SDS011;51109;47.414;18.954;2022-12-07T06:21:08;21.00;;;8.23;;
64684;SDS011;51109;47.414;18.954;2022-12-07T06:23:34;18.33;;;7.50;;
64684;SDS011;51109;47.414;18.954;2022-12-07T06:26:00;18.35;;;7.50;;
64684;SDS011;51109;47.414;18.954;2022-12-07T06:28:26;19.92;;;7.97;;
64684;SDS011;51109;47.414;18.954;2022-12-07T06:31:00;18.08;;;8.18;;
64684;SDS011;51109;47.414;18.954;2022-12-07T06:33:27;23.42;;;8.88;;
64684;SDS011;51109;47.414;18.954;2022-12-07T06:35:53;23.50;;;10.13;;
64684;SDS011;51109;47.414;18.954;2022-12-07T06:38:19;23.83;;;10.45;;
64684;SDS011;51109;47.414;18.954;2022-12-07T06:40:45;20.67;;;8.15;;
64684;SDS011;51109;47.414;18.954;2022-12-07T06:43:11;23.23;;;8.60;;
64684;SDS011;51109;47.414;18.954;2022-12-07T06:45:37;20.15;;;7.75;;
64684;SDS011;51109;47.414;18.954;2022-12-07T06:48:03;17.30;;;7.85;;
64684;SDS011;51109;47.414;18.954;2022-12-07T06:50:29;13.85;;;7.88;;
64684;SDS011;51109;47.414;18.954;2022-12-07T06:52:55;16.00;;;7.55;;
64684;SDS011;51109;47.414;18.954;2022-12-07T06:55:20;17.70;;;6.68;;
64684;SDS011;51109;47.414;18.954;2022-12-07T06:57:46;13.40;;;6.55;;
64684;SDS011;51109;47.414;18.954;2022-12-07T07:00:12;12.48;;;6.32;;
64684;SDS011;51109;47.414;18.954;2022-12-07T07:02:39;11.80;;;6.05;;
64684;SDS011;51109;47.414;18.954;2022-12-07T07:05:05;16.02;;;7.68;;
64684;SDS011;51109;47.414;18.954;2022-12-07T07:07:31;12.40;;;7.53;;
64684;SDS011;51109;47.414;18.954;2022-12-07T07:09:57;13.35;;;6.70;;
64684;SDS011;51109;47.414;18.954;2022-12-07T07:12:23;14.63;;;7.40;;
64684;SDS011;51109;47.414;18.954;2022-12-07T07:14:49;13.25;;;6.50;;
64684;SDS011;51109;47.414;18.954;2022-12-07T07:17:15;14.88;;;7.65;;
64684;SDS011;51109;47.414;18.954;2022-12-07T07:19:41;12.40;;;6.50;;
64684;SDS011;51109;47.414;18.954;2022-12-07T07:22:07;15.43;;;6.40;;
64684;SDS011;51109;47.414;18.954;2022-12-07T07:24:32;14.70;;;6.60;;
64684;SDS011;51109;47.414;18.954;2022-12-07T07:26:58;12.57;;;6.10;;
64684;SDS011;51109;47.414;18.954;2022-12-07T07:29:24;10.00;;;6.47;;
64684;SDS011;51109;47.414;18.954;2022-12-07T07:31:50;16.73;;;6.97;;
64684;SDS011;51109;47.414;18.954;2022-12-07T07:34:16;12.80;;;6.15;;
64684;SDS011;51109;47.414;18.954;2022-12-07T07:36:42;14.68;;;7.38;;
64684;SDS011;51109;47.414;18.954;2022-12-07T07:39:09;14.25;;;7.53;;
64684;SDS011;51109;47.414;18.954;2022-12-07T07:41:38;15.55;;;7.15;;
64684;SDS011;51109;47.414;18.954;2022-12-07T07:44:03;15.80;;;7.07;;
64684;SDS011;51109;47.414;18.954;2022-12-07T07:46:29;17.98;;;7.32;;
64684;SDS011;51109;47.414;18.954;2022-12-07T07:48:56;19.33;;;9.10;;
64684;SDS011;51109;47.414;18.954;2022-12-07T07:51:22;24.15;;;7.97;;
64684;SDS011;51109;47.414;18.954;2022-12-07T07:53:48;19.85;;;9.60;;
64684;SDS011;51109;47.414;18.954;2022-12-07T07:56:14;20.83;;;8.70;;
64684;SDS011;51109;47.414;18.954;2022-12-07T07:58:40;22.02;;;8.75;;
64684;SDS011;51109;47.414;18.954;2022-12-07T08:01:06;17.48;;;7.75;;
64684;SDS011;51109;47.414;18.954;2022-12-07T08:03:32;15.10;;;8.00;;
64684;SDS011;51109;47.414;18.954;2022-12-07T08:05:59;21.98;;;9.95;;
64684;SDS011;51109;47.414;18.954;2022-12-07T08:08:24;18.75;;;10.38;;
64684;SDS011;51109;47.414;18.954;2022-12-07T08:10:50;21.55;;;9.75;;
64684;SDS011;51109;47.414;18.954;2022-12-07T08:13:16;19.65;;;11.75;;
64684;SDS011;51109;47.414;18.954;2022-12-07T08:15:43;26.20;;;12.35;;
64684;SDS011;51109;47.414;18.954;2022-12-07T08:18:10;30.85;;;13.15;;
64684;SDS011;51109;47.414;18.954;2022-12-07T08:20:38;22.17;;;12.32;;
64684;SDS011;51109;47.414;18.954;2022-12-07T08:23:04;26.63;;;11.45;;
64684;SDS011;51109;47.414;18.954;2022-12-07T08:25:31;29.25;;;11.18;;
64684;SDS011;51109;47.414;18.954;2022-12-07T08:27:58;21.92;;;10.70;;
64684;SDS011;51109;47.414;18.954;2022-12-07T08:30:25;17.08;;;9.63;;
64684;SDS011;51109;47.414;18.954;2022-12-07T08:32:51;22.88;;;10.65;;
64684;SDS011;51109;47.414;18.954;2022-12-07T08:35:18;25.02;;;11.43;;
64684;SDS011;51109;47.414;18.954;2022-12-07T08:37:44;25.00;;;11.70;;
64684;SDS011;51109;47.414;18.954;2022-12-07T08:40:11;20.52;;;10.25;;
64684;SDS011;51109;47.414;18.954;2022-12-07T08:42:41;15.80;;;8.68;;
64684;SDS011;51109;47.414;18.954;2022-12-07T08:45:13;20.42;;;10.82;;
64684;SDS011;51109;47.414;18.954;2022-12-07T08:47:41;14.23;;;7.40;;
64684;SDS011;51109;47.414;18.954;2022-12-07T08:50:13;17.05;;;6.95;;
64684;SDS011;51109;47.414;18.954;2022-12-07T08:52:40;16.25;;;6.38;;
64684;SDS011;51109;47.414;18.954;2022-12-07T08:55:07;16.42;;;6.55;;
64684;SDS011;51109;47.414;18.954;2022-12-07T08:57:36;16.25;;;7.45;;
64684;SDS011;51109;47.414;18.954;2022-12-07T09:00:03;14.75;;;6.03;;
64684;SDS011;51109;47.414;18.954;2022-12-07T09:02:30;13.65;;;5.68;;
64684;SDS011;51109;47.414;18.954;2022-12-07T09:04:57;15.40;;;7.25;;
64684;SDS011;51109;47.414;18.954;2022-12-07T09:07:23;13.07;;;5.88;;
64684;SDS011;51109;47.414;18.954;2022-12-07T09:09:49;14.35;;;5.80;;
64684;SDS011;51109;47.414;18.954;2022-12-07T09:12:15;12.93;;;5.78;;
64684;SDS011;51109;47.414;18.954;2022-12-07T09:14:41;10.85;;;6.00;;
64684;SDS011;51109;47.414;18.954;2022-12-07T09:17:08;12.27;;;5.22;;
64684;SDS011;51109;47.414;18.954;2022-12-07T09:19:35;11.23;;;6.60;;
64684;SDS011;51109;47.414;18.954;2022-12-07T09:22:01;11.07;;;6.30;;
64684;SDS011;51109;47.414;18.954;2022-12-07T09:24:28;14.38;;;6.45;;
64684;SDS011;51109;47.414;18.954;2022-12-07T09:26:53;10.68;;;5.40;;
64684;SDS011;51109;47.414;18.954;2022-12-07T09:29:19;10.40;;;6.55;;
64684;SDS011;51109;47.414;18.954;2022-12-07T09:31:45;16.45;;;6.85;;
64684;SDS011;51109;47.414;18.954;2022-12-07T09:34:11;11.40;;;6.22;;
64684;SDS011;51109;47.414;18.954;2022-12-07T09:36:37;9.05;;;5.72;;
64684;SDS011;51109;47.414;18.954;2022-12-07T09:39:03;14.60;;;5.50;;
64684;SDS011;51109;47.414;18.954;2022-12-07T09:41:30;14.00;;;6.00;;
64684;SDS011;51109;47.414;18.954;2022-12-07T09:44:00;14.88;;;6.95;;
64684;SDS011;51109;47.414;18.954;2022-12-07T09:46:37;8.90;;;4.80;;
64684;SDS011;51109;47.414;18.954;2022-12-07T09:49:05;11.98;;;6.03;;
64684;SDS011;51109;47.414;18.954;2022-12-07T09:51:45;13.68;;;7.07;;
64684;SDS011;51109;47.414;18.954;2022-12-07T09:54:15;9.07;;;5.57;;
64684;SDS011;51109;47.414;18.954;2022-12-07T09:56:42;13.52;;;6.15;;
64684;SDS011;51109;47.414;18.954;2022-12-07T09:59:12;9.75;;;4.00;;
64684;SDS011;51109;47.414;18.954;2022-12-07T10:01:42;10.77;;;4.88;;
64684;SDS011;51109;47.414;18.954;2022-12-07T10:06:40;14.13;;;5.50;;
64684;SDS011;51109;47.414;18.954;2022-12-07T10:09:14;8.05;;;4.50;;
64684;SDS011;51109;47.414;18.954;2022-12-07T10:14:53;12.13;;;5.18;;
64684;SDS011;51109;47.414;18.954;2022-12-07T10:22:59;3.85;;;3.25;;
64684;SDS011;51109;47.414;18.954;2022-12-07T10:25:35;3.95;;;3.05;;
64684;SDS011;51109;47.414;18.954;2022-12-07T10:30:51;10.30;;;4.53;;
64684;SDS011;51109;47.414;18.954;2022-12-07T10:33:35;3.78;;;3.08;;
64684;SDS011;51109;47.414;18.954;2022-12-07T10:39:32;6.65;;;4.10;;
64684;SDS011;51109;47.414;18.954;2022-12-07T10:42:03;8.20;;;5.80;;
64684;SDS011;51109;47.414;18.954;2022-12-07T10:44:29;11.20;;;4.97;;
64684;SDS011;51109;47.414;18.954;2022-12-07T11:01:19;7.15;;;4.22;;
64684;SDS011;51109;47.414;18.954;2022-12-07T11:07:07;8.57;;;4.18;;
64684;SDS011;51109;47.414;18.954;2022-12-07T11:10:12;5.85;;;3.50;;
64684;SDS011;51109;47.414;18.954;2022-12-07T11:20:44;6.13;;;3.38;;
64684;SDS011;51109;47.414;18.954;2022-12-07T11:25:55;6.63;;;3.80;;
64684;SDS011;51109;47.414;18.954;2022-12-07T11:29:07;9.80;;;4.20;;
64684;SDS011;51109;47.414;18.954;2022-12-07T11:36:56;7.40;;;3.35;;
64684;SDS011;51109;47.414;18.954;2022-12-07T11:39:33;7.80;;;4.25;;
64684;SDS011;51109;47.414;18.954;2022-12-07T11:42:13;5.35;;;2.83;;
64684;SDS011;51109;47.414;18.954;2022-12-07T11:49:56;4.80;;;3.60;;
64684;SDS011;51109;47.414;18.954;2022-12-07T11:55:45;10.18;;;4.47;;
64684;SDS011;51109;47.414;18.954;2022-12-07T12:04:01;5.43;;;3.25;;
64684;SDS011;51109;47.414;18.954;2022-12-07T12:06:34;5.90;;;2.50;;
64684;SDS011;51109;47.414;18.954;2022-12-07T12:09:06;7.65;;;3.72;;
64684;SDS011;51109;47.414;18.954;2022-12-07T12:14:44;9.45;;;2.25;;
64684;SDS011;51109;47.414;18.954;2022-12-07T12:17:29;5.72;;;2.28;;
64684;SDS011;51109;47.414;18.954;2022-12-07T12:25:54;5.13;;;3.63;;
64684;SDS011;51109;47.414;18.954;2022-12-07T12:31:15;7.22;;;4.55;;
64684;SDS011;51109;47.414;18.954;2022-12-07T12:33:48;5.78;;;3.90;;
64684;SDS011;51109;47.414;18.954;2022-12-07T12:36:20;8.43;;;3.92;;
64684;SDS011;51109;47.414;18.954;2022-12-07T12:46:57;3.78;;;3.30;;
64684;SDS011;51109;47.414;18.954;2022-12-07T12:51:55;6.68;;;3.85;;
64684;SDS011;51109;47.414;18.954;2022-12-07T13:05:02;6.05;;;3.63;;
64684;SDS011;51109;47.414;18.954;2022-12-07T13:28:46;2.85;;;2.10;;
64684;SDS011;51109;47.414;18.954;2022-12-07T13:31:16;3.25;;;1.90;;
64684;SDS011;51109;47.414;18.954;2022-12-07T13:33:56;4.10;;;2.10;;
64684;SDS011;51109;47.414;18.954;2022-12-07T13:36:26;3.95;;;2.20;;
64684;SDS011;51109;47.414;18.954;2022-12-07T13:38:58;3.95;;;2.40;;
64684;SDS011;51109;47.414;18.954;2022-12-07T13:41:27;4.50;;;2.40;;
64684;SDS011;51109;47.414;18.954;2022-12-07T13:46:30;3.90;;;2.40;;
64684;SDS011;51109;47.414;18.954;2022-12-07T13:49:18;5.90;;;2.42;;
64684;SDS011;51109;47.414;18.954;2022-12-07T13:51:52;2.92;;;2.53;;
64684;SDS011;51109;47.414;18.954;2022-12-07T13:54:19;4.75;;;2.35;;
64684;SDS011;51109;47.414;18.954;2022-12-07T13:56:49;2.65;;;2.15;;
64684;SDS011;51109;47.414;18.954;2022-12-07T13:59:18;5.30;;;2.45;;
64684;SDS011;51109;47.414;18.954;2022-12-07T14:01:47;3.72;;;2.30;;
64684;SDS011;51109;47.414;18.954;2022-12-07T14:06:52;2.97;;;2.42;;
64684;SDS011;51109;47.414;18.954;2022-12-07T14:11:47;5.35;;;3.78;;
64684;SDS011;51109;47.414;18.954;2022-12-07T14:14:16;3.53;;;2.65;;
64684;SDS011;51109;47.414;18.954;2022-12-07T14:16:54;3.78;;;2.75;;
64684;SDS011;51109;47.414;18.954;2022-12-07T14:19:42;7.25;;;3.13;;
64684;SDS011;51109;47.414;18.954;2022-12-07T14:22:56;7.28;;;2.92;;
64684;SDS011;51109;47.414;18.954;2022-12-07T14:27:38;4.80;;;2.97;;
64684;SDS011;51109;47.414;18.954;2022-12-07T14:30:05;9.10;;;3.45;;
64684;SDS011;51109;47.414;18.954;2022-12-07T14:32:31;5.90;;;2.92;;
64684;SDS011;51109;47.414;18.954;2022-12-07T14:35:08;7.05;;;3.35;;
64684;SDS011;51109;47.414;18.954;2022-12-07T14:37:36;6.13;;;2.97;;
64684;SDS011;51109;47.414;18.954;2022-12-07T14:40:04;8.35;;;4.35;;
64684;SDS011;51109;47.414;18.954;2022-12-07T14:42:31;8.43;;;4.15;;
64684;SDS011;51109;47.414;18.954;2022-12-07T14:44:58;12.25;;;3.90;;
64684;SDS011;51109;47.414;18.954;2022-12-07T14:47:24;7.28;;;4.15;;
64684;SDS011;51109;47.414;18.954;2022-12-07T14:49:51;9.18;;;5.13;;
64684;SDS011;51109;47.414;18.954;2022-12-07T14:52:27;11.40;;;6.22;;
64684;SDS011;51109;47.414;18.954;2022-12-07T14:54:55;11.98;;;5.10;;
64684;SDS011;51109;47.414;18.954;2022-12-07T14:57:21;13.10;;;5.45;;
64684;SDS011;51109;47.414;18.954;2022-12-07T14:59:47;8.23;;;4.30;;
64684;SDS011;51109;47.414;18.954;2022-12-07T15:02:13;9.88;;;5.15;;
64684;SDS011;51109;47.414;18.954;2022-12-07T15:04:40;7.28;;;4.53;;
64684;SDS011;51109;47.414;18.954;2022-12-07T15:07:08;7.57;;;3.58;;
64684;SDS011;51109;47.414;18.954;2022-12-07T15:09:41;9.35;;;4.20;;
64684;SDS011;51109;47.414;18.954;2022-12-07T15:12:06;10.15;;;4.68;;
64684;SDS011;51109;47.414;18.954;2022-12-07T15:14:32;6.22;;;3.58;;
64684;SDS011;51109;47.414;18.954;2022-12-07T15:16:58;11.93;;;4.07;;
64684;SDS011;51109;47.414;18.954;2022-12-07T15:19:24;10.50;;;4.45;;
64684;SDS011;51109;47.414;18.954;2022-12-07T15:21:53;6.68;;;3.95;;
64684;SDS011;51109;47.414;18.954;2022-12-07T15:24:20;12.55;;;5.18;;
64684;SDS011;51109;47.414;18.954;2022-12-07T15:26:46;14.00;;;5.15;;
64684;SDS011;51109;47.414;18.954;2022-12-07T15:29:13;14.70;;;5.85;;
64684;SDS011;51109;47.414;18.954;2022-12-07T15:31:40;12.60;;;4.93;;
64684;SDS011;51109;47.414;18.954;2022-12-07T15:34:06;9.60;;;4.75;;
64684;SDS011;51109;47.414;18.954;2022-12-07T15:36:32;7.15;;;4.05;;
64684;SDS011;51109;47.414;18.954;2022-12-07T15:38:59;11.27;;;4.60;;
64684;SDS011;51109;47.414;18.954;2022-12-07T15:41:25;12.15;;;4.05;;
64684;SDS011;51109;47.414;18.954;2022-12-07T15:43:51;11.02;;;4.30;;
64684;SDS011;51109;47.414;18.954;2022-12-07T15:46:36;7.93;;;3.97;;
64684;SDS011;51109;47.414;18.954;2022-12-07T15:49:07;6.18;;;3.90;;
64684;SDS011;51109;47.414;18.954;2022-12-07T15:51:52;7.68;;;3.83;;
64684;SDS011;51109;47.414;18.954;2022-12-07T15:54:23;5.78;;;3.47;;
64684;SDS011;51109;47.414;18.954;2022-12-07T15:56:51;8.95;;;4.88;;
64684;SDS011;51109;47.414;18.954;2022-12-07T15:59:19;7.85;;;4.80;;
64684;SDS011;51109;47.414;18.954;2022-12-07T16:01:45;8.77;;;3.88;;
64684;SDS011;51109;47.414;18.954;2022-12-07T16:04:10;10.88;;;4.60;;
64684;SDS011;51109;47.414;18.954;2022-12-07T16:06:37;15.88;;;5.88;;
64684;SDS011;51109;47.414;18.954;2022-12-07T16:09:03;19.50;;;7.70;;
64684;SDS011;51109;47.414;18.954;2022-12-07T16:11:30;13.82;;;7.65;;
64684;SDS011;51109;47.414;18.954;2022-12-07T16:13:56;9.13;;;5.38;;
64684;SDS011;51109;47.414;18.954;2022-12-07T16:16:22;10.00;;;4.53;;
64684;SDS011;51109;47.414;18.954;2022-12-07T16:18:48;12.00;;;4.82;;
64684;SDS011;51109;47.414;18.954;2022-12-07T16:21:16;10.30;;;4.97;;
64684;SDS011;51109;47.414;18.954;2022-12-07T16:23:42;7.60;;;4.32;;
64684;SDS011;51109;47.414;18.954;2022-12-07T16:26:26;8.52;;;3.92;;
64684;SDS011;51109;47.414;18.954;2022-12-07T16:31:19;10.68;;;4.18;;
64684;SDS011;51109;47.414;18.954;2022-12-07T16:33:47;14.07;;;5.78;;
64684;SDS011;51109;47.414;18.954;2022-12-07T16:36:14;11.23;;;5.20;;
64684;SDS011;51109;47.414;18.954;2022-12-07T16:38:41;16.60;;;8.35;;
64684;SDS011;51109;47.414;18.954;2022-12-07T16:41:09;16.23;;;7.85;;
64684;SDS011;51109;47.414;18.954;2022-12-07T16:43:36;14.73;;;7.22;;
64684;SDS011;51109;47.414;18.954;2022-12-07T16:46:02;12.27;;;5.40;;
64684;SDS011;51109;47.414;18.954;2022-12-07T16:48:29;15.73;;;6.53;;
64684;SDS011;51109;47.414;18.954;2022-12-07T16:50:55;12.25;;;6.35;;
64684;SDS011;51109;47.414;18.954;2022-12-07T16:53:21;15.48;;;5.68;;
64684;SDS011;51109;47.414;18.954;2022-12-07T16:55:49;15.05;;;6.05;;
64684;SDS011;51109;47.414;18.954;2022-12-07T16:58:16;9.68;;;5.28;;
64684;SDS011;51109;47.414;18.954;2022-12-07T17:00:43;16.27;;;6.93;;
64684;SDS011;51109;47.414;18.954;2022-12-07T17:03:09;15.27;;;6.65;;
64684;SDS011;51109;47.414;18.954;2022-12-07T17:05:39;12.70;;;5.75;;
64684;SDS011;51109;47.414;18.954;2022-12-07T17:08:07;16.80;;;6.30;;
64684;SDS011;51109;47.414;18.954;2022-12-07T17:10:34;11.75;;;4.60;;
64684;SDS011;51109;47.414;18.954;2022-12-07T17:13:05;12.77;;;6.13;;
64684;SDS011;51109;47.414;18.954;2022-12-07T17:15:57;12.15;;;6.38;;
64684;SDS011;51109;47.414;18.954;2022-12-07T17:18:26;8.63;;;4.15;;
64684;SDS011;51109;47.414;18.954;2022-12-07T17:21:01;9.60;;;4.57;;
64684;SDS011;51109;47.414;18.954;2022-12-07T17:23:32;13.55;;;5.95;;